Flight Track Log - Related Links

Times and Time Zones

All times are in EDT time to prevent confusion due to time zone crossing. See the N860BA flight status page for this flight to view local times or setup timezone preferences in your user account.

Time Position Orientation Groundspeed Altitude Reporting Facility
EDT Latitude Longitude Course Direction KTS MPH feet Rate Location/Type
Sat 01:17:28 AM 34.1667 -118.4833 68° East 182 209 1,700  Level Southern California TRACON
Sat 01:19:22 AM 34.1917 -118.4097 68° East 227 261 7,300 2,811 Climbing Los Angeles Center
Sat 01:20:23 AM 34.2517 -118.4447 334° Northwest 239 275 9,900 2,656 Climbing Los Angeles Center
Sat 01:21:24 AM 34.3214 -118.4308 North 257 296 12,700 2,066 Climbing Los Angeles Center
Sat 01:22:25 AM 34.3894 -118.3844 29° Northeast 281 323 14,100 1,623 Climbing Los Angeles Center
Sat 01:23:26 AM 34.4717 -118.3247 31° Northeast 344 396 16,000 1,869 Climbing Los Angeles Center
Sat 01:24:27 AM 34.5106 -118.2075 68° East 359 413 17,900 1,884 Climbing Los Angeles Center
Sat 01:25:27 AM 34.5458 -118.0808 71° East 374 430 19,800 1,537 Climbing Los Angeles Center
Sat 01:26:28 AM 34.5811 -117.9558 71° East 391 450 21,000 590 Climbing Los Angeles Center
Sat 01:27:29 AM 34.6203 -117.8156 71° East 440 506 21,000 148 Level Los Angeles Center
Sat 01:28:30 AM 34.6617 -117.6686 71° East 462 532 21,300 492 Climbing Los Angeles Center
Sat 01:29:31 AM 34.6947 -117.5486 71° East 470 541 22,000 836 Climbing Los Angeles Center
Sat 01:30:32 AM 34.7461 -117.3653 71° East 482 555 23,000 942 Climbing Los Angeles Center
Sat 01:31:32 AM 34.7886 -117.2100 72° East 489 563 23,900 843 Climbing Los Angeles Center
Sat 01:32:33 AM 34.8319 -117.0542 71° East 492 566 24,700 934 Climbing Los Angeles Center
Sat 01:33:34 AM 34.9194 -116.8897 57° Northeast 488 562 25,800 934 Climbing Los Angeles Center
Sat 01:34:35 AM 35.0067 -116.7636 50° Northeast 489 563 26,600 793 Climbing Los Angeles Center
Sat 01:35:35 AM 35.0950 -116.6344 50° Northeast 496 571 27,400 843 Climbing Los Angeles Center
Sat 01:36:36 AM 35.1822 -116.5061 50° Northeast 494 568 28,300 836 Climbing Los Angeles Center
Sat 01:37:37 AM 35.2706 -116.3783 50° Northeast 493 567 29,100 836 Climbing Los Angeles Center
Sat 01:38:38 AM 35.3536 -116.2492 52° Northeast 490 564 30,000 843 Climbing Los Angeles Center
Sat 01:39:38 AM 35.4419 -116.1219 50° Northeast 490 564 30,800 843 Climbing Los Angeles Center
Sat 01:40:39 AM 35.5258 -115.9939 51° Northeast 485 558 31,700 885 Climbing Los Angeles Center
Sat 01:41:40 AM 35.6197 -115.8578 50° Northeast 480 552 32,600 639 Climbing Los Angeles Center
Sat 01:42:41 AM 35.7019 -115.7308 51° Northeast 478 550 33,000 198 Climbing Los Angeles Center
Sat 01:43:41 AM 35.7881 -115.6064 50° Northeast 478 550 33,000  Level Los Angeles Center
Sat 01:44:42 AM 35.8722 -115.4781 51° Northeast 482 555 33,000  Level Los Angeles Center
Sat 01:45:43 AM 35.9558 -115.3492 51° Northeast 485 558 33,000  Level Los Angeles Center
Sat 01:46:44 AM 36.0408 -115.2197 51° Northeast 489 563 33,000  Level Los Angeles Center
Sat 01:47:44 AM 36.1067 -115.0742 61° Northeast 499 574 33,000  Level Los Angeles Center
Sat 01:48:45 AM 36.1581 -114.9197 68° East 494 568 33,000  Level Los Angeles Center
Sat 01:49:45 AM 36.1989 -114.7931 68° East 496 571 33,000  Level Los Angeles Center
Sat 01:50:46 AM 36.2697 -114.5711 68° East 497 572 33,000  Level Los Angeles Center
Sat 01:51:47 AM 36.3206 -114.4117 68° East 498 573 33,000  Level Los Angeles Center
Sat 01:52:48 AM 36.3728 -114.2508 68° East 501 577 33,000  Level Los Angeles Center
Sat 01:53:48 AM 36.4225 -114.0914 69° East 499 574 33,000  Level Los Angeles Center
Sat 01:54:49 AM 36.4736 -113.9311 68° East 500 575 33,000  Level Los Angeles Center
Sat 01:56:02 AM 36.5247 -113.7669 69° East 502 578 33,000  Level Los Angeles Center
Sat 01:57:02 AM 36.5853 -113.5744 69° East 501 577 33,000  Level Los Angeles Center
Sat 01:58:03 AM 36.6358 -113.4153 68° East 500 575 33,000  Level Los Angeles Center
Sat 01:59:04 AM 36.6858 -113.2536 69° East 500 575 33,000  Level Los Angeles Center
Sat 02:00:06 AM 36.7350 -113.0917 69° East 501 577 33,000  Level Los Angeles Center
Sat 02:01:07 AM 36.7847 -112.9294 69° East 503 579 33,000  Level Los Angeles Center
Sat 02:02:07 AM 36.8331 -112.7656 70° East 505 581 33,000  Level Los Angeles Center
Sat 02:03:08 AM 36.8828 -112.6050 69° East 502 578 33,000  Level Los Angeles Center
Sat 02:04:09 AM 36.9408 -112.4100 70° East 502 578 33,000  Level Los Angeles Center
Sat 02:05:09 AM 36.9892 -112.2478 70° East 502 578 33,000  Level Los Angeles Center
Sat 02:06:10 AM 37.0378 -112.0858 69° East 501 577 33,000  Level Los Angeles Center
Sat 02:07:11 AM 37.0850 -111.9228 70° East 502 578 33,000  Level Los Angeles Center
Sat 02:08:11 AM 37.1328 -111.7597 70° East 502 578 33,000  Level Los Angeles Center
Sat 02:09:12 AM 37.1808 -111.5961 70° East 502 578 33,000  Level Los Angeles Center
Sat 02:10:13 AM 37.2289 -111.4317 70° East 503 579 33,000  Level Los Angeles Center
Sat 02:11:13 AM 37.2764 -111.2658 70° East 505 581 33,000  Level Los Angeles Center
Sat 02:12:34 AM 37.3442 -111.0367 70° East 507 583 33,000  Level Denver Center
Sat 02:13:34 AM 37.4222 -110.8931 56° Northeast 500 575 33,000  Level Denver Center
Sat 02:14:34 AM 37.5044 -110.7531 53° Northeast 499 574 33,000  Level Denver Center
Sat 02:15:35 AM 37.5528 -110.5875 70° East 512 589 33,000  Level Denver Center
Sat 02:16:35 AM 37.6006 -110.4058 72° East 508 585 33,000  Level Denver Center
Sat 02:17:36 AM 37.6442 -110.2422 71° East 512 589 33,000  Level Denver Center
Sat 02:18:36 AM 37.6889 -110.0794 71° East 513 590 33,000  Level Denver Center
Sat 02:19:36 AM 37.7317 -109.9169 72° East 510 587 33,000  Level Denver Center
Sat 02:20:37 AM 37.7828 -109.7275 71° East 509 586 33,000  Level Denver Center
Sat 02:22:00 AM 37.8233 -109.5018 77° East  Level FlightAware Approximate
Sat 02:23:38 AM 37.9192 -109.2083 77° East 512 589 33,000  Level Denver Center
Sat 02:24:38 AM 37.9617 -109.0433 72° East 513 590 33,000  Level Denver Center
Sat 02:25:39 AM 38.0042 -108.8781 72° East 515 593 33,000  Level Denver Center
Sat 02:26:39 AM 38.0469 -108.7128 72° East 515 593 33,000  Level Denver Center
Sat 02:27:39 AM 38.0961 -108.5139 73° East 518 596 33,000  Level Denver Center
Sat 02:28:40 AM 38.1383 -108.3503 72° East 514 592 33,000  Level Denver Center
Sat 02:29:40 AM 38.1792 -108.1850 73° East 514 592 33,000  Level Denver Center
Sat 02:30:41 AM 38.2281 -107.9908 72° East 516 594 33,000  Level Denver Center
Sat 02:31:41 AM 38.2689 -107.8264 72° East 514 592 33,000  Level Denver Center
Sat 02:32:41 AM 38.3092 -107.6597 73° East 514 592 33,000  Level Denver Center
Sat 02:33:42 AM 38.3497 -107.4942 73° East 514 592 33,000  Level Denver Center
Sat 02:34:42 AM 38.3964 -107.3011 73° East 513 590 33,000  Level Denver Center
Sat 02:35:43 AM 38.4328 -107.1481 73° East 512 589 33,000  Level Denver Center
Sat 02:36:43 AM 38.4747 -106.9733 73° East 514 592 33,000  Level Denver Center
Sat 02:37:43 AM 38.5158 -106.7997 73° East 514 592 33,000  Level Denver Center
Sat 02:38:44 AM 38.5567 -106.6236 73° East 517 595 33,000  Level Denver Center
Sat 02:39:44 AM 38.5975 -106.4492 73° East 516 594 33,000  Level Denver Center
Sat 02:40:44 AM 38.6378 -106.2753 73° East 513 590 33,000  Level Denver Center
Sat 02:41:45 AM 38.6822 -106.0850 73° East 513 590 33,000  Level Denver Center
Sat 02:42:45 AM 38.7219 -105.9097 74° East 514 592 33,000  Level Denver Center
Sat 02:43:45 AM 38.7614 -105.7353 74° East 513 590 33,000  Level Denver Center
Sat 02:44:46 AM 38.8008 -105.5583 74° East 517 595 33,000  Level Denver Center
Sat 02:45:46 AM 38.8400 -105.3803 74° East 520 598 33,000  Level Denver Center
Sat 02:46:46 AM 38.8786 -105.2047 74° East 518 596 33,000  Level Denver Center
Sat 02:47:46 AM 38.9172 -105.0272 74° East 519 597 33,000  Level Denver Center
Sat 02:48:47 AM 38.9561 -104.8517 74° East 518 596 33,000  Level Denver Center
Sat 02:49:47 AM 38.9944 -104.6758 74° East 516 594 33,000  Level Denver Center
Sat 02:50:47 AM 39.0392 -104.4647 75° East 516 594 33,000  Level Denver Center
Sat 02:51:48 AM 39.0764 -104.2889 75° East 514 592 33,000  Level Denver Center
Sat 02:52:48 AM 39.1142 -104.1081 75° East 523 602 33,000  Level Denver Center
Sat 02:53:48 AM 39.1525 -103.9306 74° East 521 600 33,000  Level Denver Center
Sat 02:54:48 AM 39.1892 -103.7506 75° East 523 602 33,000  Level Denver Center
Sat 02:55:49 AM 39.2269 -103.5703 75° East 525 604 33,000  Level Denver Center
Sat 02:56:49 AM 39.2628 -103.3883 76° East 527 606 33,000  Level Denver Center
Sat 02:57:49 AM 39.3003 -103.2047 75° East 529 609 33,000  Level Denver Center
Sat 02:58:50 AM 39.3369 -103.0217 75° East 530 610 33,000  Level Denver Center
Sat 02:59:50 AM 39.3731 -102.8381 76° East 530 610 33,000  Level Denver Center
Sat 03:00:50 AM 39.4092 -102.6528 76° East 531 611 33,000  Level Denver Center
Sat 03:01:51 AM 39.4450 -102.4683 76° East 530 610 33,000  Level Denver Center
Sat 03:02:51 AM 39.4819 -102.2783 76° East 531 611 33,000  Level Denver Center
Sat 03:03:51 AM 39.5164 -102.0994 76° East 534 615 33,000  Level Denver Center
Sat 03:04:52 AM 39.5542 -101.8906 77° East 536 617 33,000  Level Denver Center
Sat 03:05:52 AM 39.5878 -101.7125 76° East 533 613 33,000  Level Denver Center
Sat 03:06:52 AM 39.6214 -101.5314 76° East 540 621 33,000  Level Denver Center
Sat 03:07:53 AM 39.6544 -101.3531 76° East 535 616 33,000  Level Denver Center
Sat 03:08:53 AM 39.6919 -101.1411 77° East 540 621 33,000  Level Denver Center
Sat 03:09:53 AM 39.7247 -100.9622 77° East 537 618 33,000  Level Denver Center
Sat 03:10:54 AM 39.7567 -100.7828 77° East 535 616 33,000  Level Denver Center
Sat 03:11:54 AM 39.7936 -100.5728 77° East 537 618 33,000  Level Denver Center
Sat 03:12:55 AM 39.8253 -100.3953 77° East 532 612 33,000  Level Denver Center
Sat 03:13:55 AM 39.8542 -100.2256 77° East 533 613 33,000  Level Denver Center
Sat 03:14:55 AM 39.8858 -100.0361 78° East 535 616 33,000  Level Denver Center
Sat 03:15:56 AM 39.9233 -99.8106 78° East 533 613 33,000  Level Denver Center
Sat 03:16:56 AM 39.9558 -99.6217 77° East 535 616 33,000  Level Denver Center
Sat 03:17:56 AM 39.9875 -99.4325 78° East 536 617 33,000  Level Denver Center
Sat 03:18:57 AM 40.0178 -99.2447 78° East 532 612 33,000  Level Denver Center
Sat 03:19:57 AM 40.0486 -99.0553 78° East 534 615 33,000  Level Denver Center
Sat 03:20:30 AM 40.0606 -98.9808 78° East 535 616 33,000  Level Minneapolis Center
Sat 03:21:31 AM 40.0903 -98.7914 78° East 535 616 33,000  Level Minneapolis Center
Sat 03:22:31 AM 40.1208 -98.6008 78° East 537 618 33,000  Level Minneapolis Center
Sat 03:23:31 AM 40.1492 -98.4103 79° East 538 619 33,000  Level Minneapolis Center
Sat 03:24:31 AM 40.1853 -98.1814 78° East 538 619 33,000  Level Minneapolis Center
Sat 03:25:31 AM 40.2131 -97.9911 79° East 536 617 33,000  Level Minneapolis Center
Sat 03:26:32 AM 40.2419 -97.8003 79° East 536 617 33,000  Level Minneapolis Center
Sat 03:27:32 AM 40.2706 -97.6086 79° East 538 619 33,000  Level Minneapolis Center
Sat 03:28:32 AM 40.2986 -97.4156 79° East 541 623 33,000  Level Minneapolis Center
Sat 03:29:32 AM 40.3258 -97.2294 79° East 542 624 33,000  Level Minneapolis Center
Sat 03:30:33 AM 40.3528 -97.0364 80° East 542 624 33,000  Level Minneapolis Center
Sat 03:31:33 AM 40.3803 -96.8464 79° East 536 617 33,000  Level Minneapolis Center
Sat 03:32:33 AM 40.4064 -96.6550 80° East 536 617 33,000  Level Minneapolis Center
Sat 03:33:33 AM 40.4328 -96.4650 80° East 533 613 33,000  Level Minneapolis Center
Sat 03:34:33 AM 40.4578 -96.2758 80° East 531 611 33,000  Level Minneapolis Center
Sat 03:35:34 AM 40.4831 -96.0883 80° East 527 606 33,000  Level Minneapolis Center
Sat 03:36:34 AM 40.5083 -95.8972 80° East 531 611 33,000  Level Minneapolis Center
Sat 03:37:34 AM 40.5344 -95.7061 80° East 534 615 33,000  Level Minneapolis Center
Sat 03:38:34 AM 40.5589 -95.5175 80° East 530 610 33,000  Level Minneapolis Center
Sat 03:39:35 AM 40.5831 -95.3289 80° East 527 606 33,000  Level Minneapolis Center
Sat 03:40:35 AM 40.6067 -95.1397 81° East 527 606 33,000  Level Minneapolis Center
Sat 03:41:35 AM 40.6303 -94.9494 81° East 529 609 33,000  Level Minneapolis Center
Sat 03:42:35 AM 40.6539 -94.7589 81° East 529 609 33,000  Level Minneapolis Center
Sat 03:43:36 AM 40.6783 -94.5536 81° East 525 604 33,000  Level Minneapolis Center
Sat 03:44:36 AM 40.7003 -94.3694 81° East 519 597 33,000  Level Minneapolis Center
Sat 03:45:36 AM 40.7206 -94.1864 82° East 512 589 33,000  Level Minneapolis Center
Sat 03:46:36 AM 40.7419 -94.0036 81° East 509 586 33,000  Level Minneapolis Center
Sat 03:47:37 AM 40.7625 -93.8217 81° East 508 585 33,000  Level Minneapolis Center
Sat 03:48:37 AM 40.7825 -93.6392 82° East 506 582 33,000  Level Minneapolis Center
Sat 03:49:37 AM 40.8039 -93.4544 81° East 509 586 33,000  Level Minneapolis Center
Sat 03:50:18 AM 40.8156 -93.3425 82° East 508 585 33,000  Level Chicago Center
Sat 03:51:18 AM 40.8353 -93.1611 82° East 503 579 33,000  Level Chicago Center
Sat 03:52:19 AM 40.8547 -92.9775 82° East 506 582 33,000  Level Chicago Center
Sat 03:53:19 AM 40.8736 -92.7953 82° East 503 579 33,000  Level Chicago Center
Sat 03:54:19 AM 40.8922 -92.6150 82° East 498 573 33,000  Level Chicago Center
Sat 03:55:19 AM 40.9111 -92.4369 82° East 493 567 33,000  Level Chicago Center
Sat 03:56:19 AM 40.9289 -92.2581 82° East 493 567 33,000  Level Chicago Center
Sat 03:57:20 AM 40.9461 -92.0789 83° East 494 568 33,000  Level Chicago Center
Sat 03:58:20 AM 40.9667 -91.8653 83° East 492 566 33,000  Level Chicago Center
Sat 03:59:20 AM 40.9844 -91.6869 82° East 491 565 33,000  Level Chicago Center
Sat 04:00:20 AM 40.9992 -91.5158 83° East 491 565 33,000  Level Chicago Center
Sat 04:01:20 AM 41.0158 -91.3347 83° East 494 568 33,000  Level Chicago Center
Sat 04:02:21 AM 41.0322 -91.1542 83° East 493 567 33,000  Level Chicago Center
Sat 04:03:21 AM 41.0475 -90.9750 83° East 490 564 33,000 -300 Level Chicago Center
Sat 04:04:21 AM 41.0631 -90.7967 83° East 487 560 32,400 -1,250 Descending Chicago Center
Sat 04:05:21 AM 41.0786 -90.6158 83° East 490 564 30,500 -1,884 Descending Chicago Center
Sat 04:06:22 AM 41.0939 -90.4353 84° East 492 566 28,600 -1,884 Descending Chicago Center
Sat 04:07:22 AM 41.1089 -90.2553 84° East 490 564 26,700 -1,850 Descending Chicago Center
Sat 04:08:22 AM 41.1225 -90.0781 84° East 483 556 24,900 -1,750 Descending Chicago Center
Sat 04:09:22 AM 41.1372 -89.9003 84° East 482 555 23,200 -1,700 Descending Chicago Center
Sat 04:10:22 AM 41.1514 -89.7244 84° East 476 548 21,500 -1,636 Descending Chicago Center
Sat 04:11:23 AM 41.1747 -89.5536 80° East 481 554 19,900 -1,636 Descending Chicago Center
Sat 04:12:23 AM 41.2372 -89.3997 62° Northeast 477 549 18,200 -1,700 Descending Chicago Center
Sat 04:13:23 AM 41.3000 -89.2453 62° Northeast 475 547 16,500 -1,600 Descending Chicago Center
Sat 04:14:23 AM 41.3492 -89.1189 63° Northeast 456 525 15,000 -1,600 Descending Chicago Center
Sat 04:15:23 AM 41.4047 -88.9800 62° Northeast 431 496 13,300 -1,686 Descending Chicago Center
Sat 04:16:24 AM 41.4569 -88.8475 62° Northeast 410 472 11,600 -1,140 Descending Chicago Center
Sat 04:17:24 AM 41.5069 -88.7197 62° Northeast 392 451 11,000 -300 Descending Chicago Center
Sat 04:18:24 AM 41.5558 -88.5956 62° Northeast 381 438 11,000  Level Chicago Center
Sat 04:19:24 AM 41.6200 -88.4833 53° Northeast 387 445 11,000  Level Chicago Center
Sat 04:20:24 AM 41.6906 -88.3789 48° Northeast 380 437 11,000 -350 Level Chicago Center
Sat 04:21:24 AM 41.7658 -88.3153 32° Northeast 324 373 10,300 -1,240 Descending Chicago Center
Sat 04:22:25 AM 41.8444 -88.2725 22° Northeast 315 362 8,500 -1,835 Descending Chicago Center
Sat 04:23:25 AM 41.9283 -88.2508 11° North 308 354 6,600 -1,850 Descending Chicago Center
Sat 04:24:25 AM 42.0139 -88.2247 13° North 313 360 4,800 -1,300 Descending Chicago Center
Sat 04:25:25 AM 42.0894 -88.1822 23° Northeast 303 349 4,000 -333 Descending Chicago Center
Sat 04:26:31 AM 42.1000 -88.0833 82° East 204 235 4,100 -476 Climbing Chicago TRACON
Sat 04:27:31 AM 42.0833 -88.0167 109° East 192 221 3,000 -1,000 Descending Chicago TRACON
Sat 04:28:31 AM 42.0500 -87.9667 132° Southeast 151 174 2,100 -750 Descending Chicago TRACON
Sat 04:29:31 AM 42.0333 -87.9500 143° Southeast 108 124 1,500 -550 Descending Chicago TRACON
Sat 04:30:31 AM 42.0000 -87.9167 143° Southeast 103 119 1,000 -500 Descending Chicago TRACON
Sat 04:32:00 AM 41.9817 -87.9067 180° South  Level Estimated

Login

Don't have an account? Register now (free) for customized features, flight alerts, and more!